»·PEaware :: TPX874 KSNA-KLAS

TPX874 :: KSNA-KLAS

FLIGHT INFORMATION

Flight Status: Arrived
Operator: ATP Experience
More flights by this operator :: More flights under this callsign
Pilot: Dave P. (45)
Aircraft: BOEING 737-600
(B736)
More flights by this aircraft type
Origin: KSNA John Wayne-Orange Co
United States
Destination: KLAS McCarran Intl
United States
More flights between these airports :: More routes between these airports
Route: FINZZ2 MISEN KEPEC6
File this flight plan on PilotEdge
Remarks: PBN / A1B1C1D1S1S2 DOF / 180701 REG / N736PM OPR / TPX PER / C RMK / TCAS SIMBRIEF
Altitude:
(Current/Filed)
29,000ft
Speed:
(Current/Filed)
460kts
Departed: 01-Jul-18 01:45 PM
Arrived: 01-Jul-18 02:31 PM
Distance/Time
Traveled:
197nm/0:46
Distance/Time
To Go:
Arrived

Flight Plot

Page will automatically refresh every two minutes.

Flight plan parsing failed; only flown route is shown


Map Options




Map Legend


Flown Route
Filed Route
Departure Airport
Arrival Airport
Navaid (VOR, NDB)
Fix

Horizontal Profiles

Position Reports

Time Latitude Longitude Heading Altitude Ground
Speed
01-Jul-18 13:19 33.675696 -117.864636 118 63ft 0kts
01-Jul-18 13:20 33.675696 -117.864636 118 63ft 0kts
01-Jul-18 13:21 33.675696 -117.864636 118 63ft 0kts
01-Jul-18 13:22 33.675696 -117.864636 118 63ft 0kts
01-Jul-18 13:23 33.675696 -117.864636 118 63ft 0kts
01-Jul-18 13:24 33.675696 -117.864636 118 63ft 0kts
01-Jul-18 13:25 33.675696 -117.864636 118 63ft 0kts
01-Jul-18 13:26 33.675696 -117.864636 118 63ft 0kts
01-Jul-18 13:27 33.675696 -117.864636 118 63ft 0kts
01-Jul-18 13:28 33.675696 -117.864636 118 63ft 0kts
01-Jul-18 13:29 33.675696 -117.864636 118 63ft 0kts
01-Jul-18 13:30 33.675696 -117.864636 118 63ft 0kts
01-Jul-18 13:31 33.675696 -117.864636 118 63ft 0kts
01-Jul-18 13:32 33.675696 -117.864636 118 63ft 0kts
01-Jul-18 13:33 33.675696 -117.864636 118 63ft 0kts
01-Jul-18 13:34 33.675696 -117.864636 118 63ft 0kts
01-Jul-18 13:35 33.675696 -117.864636 118 63ft 0kts
01-Jul-18 13:36 33.675696 -117.864636 118 63ft 0kts
01-Jul-18 13:37 33.675696 -117.864636 118 63ft 0kts
01-Jul-18 13:38 33.675696 -117.864636 118 63ft 0kts
01-Jul-18 13:39 33.675842 -117.864964 118 63ft 2kts
01-Jul-18 13:40 33.675860 -117.865006 118 63ft 0kts
01-Jul-18 13:41 33.675860 -117.865006 118 63ft 0kts
01-Jul-18 13:42 33.675860 -117.865005 118 63ft 0kts
01-Jul-18 13:43 33.678846 -117.863488 27 63ft 13kts
01-Jul-18 13:43 33.681022 -117.863986 298 63ft 11kts
01-Jul-18 13:44 33.681466 -117.865155 245 63ft 6kts
01-Jul-18 13:46 33.656276 -117.879992 206 1013ft 147kts
01-Jul-18 13:47 33.611857 -117.893686 187 2892ft 208kts
01-Jul-18 13:48 33.549962 -117.923611 220 5407ft 273kts
01-Jul-18 13:48 33.503748 -117.980211 241 7719ft 298kts
01-Jul-18 13:49 33.525884 -118.067518 329 9983ft 303kts
01-Jul-18 13:50 33.601808 -118.123660 357 12221ft 344kts
01-Jul-18 13:51 33.688104 -118.078509 32 15384ft 351kts
01-Jul-18 13:52 33.776106 -118.021371 27 18348ft 368kts
01-Jul-18 13:53 33.870229 -117.965943 26 21124ft 385kts
01-Jul-18 13:54 33.963075 -117.893324 38 22870ft 419kts
01-Jul-18 13:55 34.057723 -117.806346 37 24937ft 433kts
01-Jul-18 13:56 34.141674 -117.701091 51 26844ft 443kts
01-Jul-18 13:57 34.220192 -117.583638 51 28668ft 450kts
01-Jul-18 13:58 34.299045 -117.465852 50 29062ft 448kts
01-Jul-18 13:59 34.377658 -117.348638 50 29059ft 448kts
01-Jul-18 14:00 34.455887 -117.231189 50 29056ft 448kts
01-Jul-18 14:01 34.533802 -117.113700 50 29099ft 447kts
01-Jul-18 14:02 34.613199 -116.997503 49 29105ft 447kts
01-Jul-18 14:03 34.692960 -116.881537 49 29066ft 447kts
01-Jul-18 14:04 34.772502 -116.764963 50 29011ft 447kts
01-Jul-18 14:05 34.852797 -116.649381 44 28993ft 447kts
01-Jul-18 14:06 34.948503 -116.553430 38 28627ft 439kts
01-Jul-18 14:07 35.043585 -116.461135 38 25699ft 429kts
01-Jul-18 14:08 35.132686 -116.368358 44 23483ft 417kts
01-Jul-18 14:09 35.213069 -116.265963 45 21913ft 413kts
01-Jul-18 14:10 35.292098 -116.165813 45 20394ft 405kts
01-Jul-18 14:11 35.369728 -116.067918 45 18896ft 396kts
01-Jul-18 14:12 35.445938 -115.971810 45 17437ft 389kts
01-Jul-18 14:13 35.520519 -115.877643 45 15981ft 380kts
01-Jul-18 14:14 35.592814 -115.785602 46 14585ft 360kts
01-Jul-18 14:15 35.658654 -115.701555 46 13330ft 323kts
01-Jul-18 14:16 35.718170 -115.624768 48 12609ft 310kts
01-Jul-18 14:17 35.774574 -115.546010 49 11861ft 302kts
01-Jul-18 14:18 35.830256 -115.468222 49 11210ft 302kts
01-Jul-18 14:19 35.884831 -115.391695 49 10568ft 284kts
01-Jul-18 14:20 35.935623 -115.320077 49 9975ft 275kts
01-Jul-18 14:21 35.985948 -115.248962 49 9379ft 274kts
01-Jul-18 14:22 36.015801 -115.167075 90 8993ft 270kts
01-Jul-18 14:23 36.010237 -115.079635 94 8355ft 242kts
01-Jul-18 14:24 36.005872 -115.004822 94 7343ft 207kts
01-Jul-18 14:25 36.001990 -114.940346 95 6275ft 183kts
01-Jul-18 14:26 36.035260 -114.909473 2 4746ft 180kts
01-Jul-18 14:27 36.072767 -114.943556 284 4268ft 182kts
01-Jul-18 14:28 36.073798 -115.004823 268 4094ft 178kts
01-Jul-18 14:29 36.073710 -115.063045 269 3179ft 158kts
01-Jul-18 14:30 36.073668 -115.112763 269 2417ft 139kts
01-Jul-18 14:31 36.074060 -115.144046 294 2188ft 12kts
01-Jul-18 14:32 36.075719 -115.146434 357 2188ft 8kts
01-Jul-18 14:33 36.077536 -115.144812 93 2188ft 9kts
01-Jul-18 14:34 36.078121 -115.141441 49 2188ft 8kts
01-Jul-18 14:35 36.080085 -115.137969 48 2188ft 13kts
01-Jul-18 14:36 36.081131 -115.138027 322 2188ft 0kts
01-Jul-18 14:37 36.081131 -115.138027 322 2188ft 0kts
01-Jul-18 14:38 36.081131 -115.138027 322 2188ft 0kts
01-Jul-18 14:39 36.081131 -115.138027 322 2188ft 0kts
01-Jul-18 14:40 36.081131 -115.138027 322 2188ft 0kts
01-Jul-18 14:41 36.081131 -115.138027 322 2188ft 0kts
01-Jul-18 14:42 36.081131 -115.138027 322 2188ft 0kts
01-Jul-18 14:43 36.081131 -115.138027 322 2188ft 0kts
01-Jul-18 14:44 36.081131 -115.138027 322 2188ft 0kts
01-Jul-18 14:45 36.081131 -115.138027 322 2188ft 0kts

Navigation Log

Ident Type
Flight plan parsing failed, navigation log unavailable